createdAt,value
2018-05-16T00:01:20.736Z,87.86
2018-05-16T00:03:48.312Z,88.04
2018-05-16T00:06:15.888Z,87.91
2018-05-16T00:08:43.620Z,88.07
2018-05-16T00:11:11.173Z,87.92
2018-05-16T00:13:38.913Z,83.32
2018-05-16T00:16:06.457Z,83.94
2018-05-16T00:18:34.005Z,79.37
2018-05-16T00:21:01.692Z,80.07
2018-05-16T00:23:29.242Z,78.15
2018-05-16T00:25:56.800Z,77.78
2018-05-16T00:28:24.385Z,75.22
2018-05-16T00:30:51.931Z,73.03
2018-05-16T00:33:19.480Z,73.45
2018-05-16T00:35:47.053Z,72.10
2018-05-16T00:38:14.597Z,68.80
2018-05-16T00:40:43.016Z,70.74
2018-05-16T00:43:10.642Z,70.17
2018-05-16T00:45:38.212Z,68.44
2018-05-16T00:48:05.749Z,67.92
2018-05-16T00:50:33.342Z,67.40
2018-05-16T00:53:00.880Z,66.17
2018-05-16T00:55:28.419Z,67.01
2018-05-16T00:57:55.999Z,66.20
2018-05-16T01:00:23.548Z,65.07
2018-05-16T01:02:51.086Z,64.91
2018-05-16T01:05:18.712Z,64.12
2018-05-16T01:07:46.255Z,64.42
2018-05-16T01:10:13.793Z,64.27
2018-05-16T01:12:41.515Z,63.14
2018-05-16T01:15:09.054Z,63.49
2018-05-16T01:17:36.603Z,63.68
2018-05-16T01:20:04.499Z,63.50
2018-05-16T01:22:32.064Z,62.26
2018-05-16T01:24:59.609Z,61.23
2018-05-16T01:27:27.185Z,61.78
2018-05-16T01:29:54.722Z,62.34
2018-05-16T01:32:22.255Z,63.04
2018-05-16T01:34:49.931Z,63.99
2018-05-16T01:37:17.481Z,64.44
2018-05-16T01:39:45.015Z,65.27
2018-05-16T01:42:12.586Z,66.01
2018-05-16T01:44:40.119Z,67.38
2018-05-16T01:47:07.657Z,70.35
2018-05-16T01:49:35.219Z,69.94
2018-05-16T01:52:02.763Z,70.05
2018-05-16T01:54:30.316Z,69.83
2018-05-16T01:56:58.018Z,70.18
2018-05-16T01:59:25.564Z,70.18
2018-05-16T02:01:53.104Z,71.77
2018-05-16T02:04:20.676Z,72.29
2018-05-16T02:06:48.221Z,71.06
2018-05-16T02:09:15.776Z,70.86
2018-05-16T02:11:43.345Z,71.30
2018-05-16T02:14:10.879Z,70.31
2018-05-16T02:16:38.511Z,69.18
2018-05-16T02:19:06.019Z,70.64
2018-05-16T02:21:33.556Z,69.71
2018-05-16T02:24:01.109Z,69.52
2018-05-16T02:26:28.686Z,69.43
2018-05-16T02:28:56.235Z,68.35
2018-05-16T02:31:23.772Z,68.52
2018-05-16T02:33:51.493Z,68.59
2018-05-16T02:36:19.031Z,70.29
2018-05-16T02:38:46.576Z,68.29
2018-05-16T02:41:14.125Z,70.21
2018-05-16T02:43:41.656Z,73.48
2018-05-16T02:46:09.348Z,75.21
2018-05-16T02:48:36.877Z,76.61
2018-05-16T02:51:04.407Z,76.79
2018-05-16T02:53:32.198Z,78.35
2018-05-16T02:55:59.747Z,80.80
2018-05-16T02:58:27.282Z,81.32
2018-05-16T03:00:54.955Z,81.85
2018-05-16T03:03:22.505Z,81.76
2018-05-16T03:05:50.049Z,82.55
2018-05-16T03:08:17.620Z,82.51
2018-05-16T03:10:45.160Z,82.61
2018-05-16T03:13:12.693Z,82.73
2018-05-16T03:15:40.408Z,82.85
2018-05-16T03:18:07.935Z,83.03
2018-05-16T03:20:35.475Z,83.22
2018-05-16T03:23:03.192Z,83.06
2018-05-16T03:25:30.731Z,83.13
2018-05-16T03:27:58.263Z,83.09
2018-05-16T03:30:25.843Z,82.98
2018-05-16T03:32:53.380Z,82.72
2018-05-16T03:35:20.921Z,82.73
2018-05-16T03:37:48.587Z,82.25
2018-05-16T03:40:16.139Z,82.16
2018-05-16T03:42:43.672Z,82.07
2018-05-16T03:45:11.255Z,81.92
2018-05-16T03:47:38.797Z,80.82
2018-05-16T03:50:06.338Z,80.66
2018-05-16T03:52:34.237Z,80.86
2018-05-16T03:55:01.781Z,80.94
2018-05-16T03:57:40.986Z,80.01
2018-05-16T04:00:20.363Z,79.97
2018-05-16T04:02:59.704Z,79.37
2018-05-16T04:05:27.258Z,79.85
2018-05-16T04:07:54.813Z,80.01
2018-05-16T04:10:22.392Z,80.15
2018-05-16T04:12:49.937Z,79.86
2018-05-16T04:15:17.480Z,79.18
2018-05-16T04:17:45.203Z,78.78
2018-05-16T04:20:12.757Z,77.97
2018-05-16T04:22:40.314Z,76.84
2018-05-16T04:25:07.880Z,75.69
2018-05-16T04:27:35.416Z,74.19
2018-05-16T04:30:02.984Z,74.14
2018-05-16T04:32:30.566Z,70.53
2018-05-16T04:34:58.115Z,71.36
2018-05-16T04:37:25.663Z,66.61
2018-05-16T04:39:53.236Z,65.73
2018-05-16T04:42:20.768Z,60.37
2018-05-16T04:44:48.326Z,58.54
2018-05-16T04:47:16.094Z,56.03
2018-05-16T04:49:43.643Z,53.68
2018-05-16T04:52:11.186Z,47.37
2018-05-16T04:54:38.747Z,50.01
2018-05-16T04:57:06.290Z,48.38
2018-05-16T04:59:33.834Z,42.20
2018-05-16T05:02:01.587Z,36.96
2018-05-16T05:04:29.121Z,33.10
2018-05-16T05:06:56.663Z,30.59
2018-05-16T05:09:24.508Z,28.71
2018-05-16T05:11:52.049Z,27.03
2018-05-16T05:14:19.601Z,27.83
2018-05-16T05:16:47.165Z,28.30
2018-05-16T05:19:14.706Z,26.79
2018-05-16T05:21:42.249Z,25.44
2018-05-16T05:24:10.159Z,26.30
2018-05-16T05:26:37.709Z,25.99
2018-05-16T05:29:05.240Z,27.81
2018-05-16T05:31:32.829Z,27.17
2018-05-16T05:34:00.360Z,31.12
2018-05-16T05:36:27.894Z,30.53
2018-05-16T05:38:55.750Z,31.18
2018-05-16T05:41:23.299Z,31.88
2018-05-16T05:43:50.872Z,31.70
2018-05-16T05:46:18.472Z,32.12
2018-05-16T05:48:46.016Z,32.64
2018-05-16T05:51:13.570Z,32.46
2018-05-16T05:53:41.154Z,33.20
2018-05-16T05:56:08.703Z,32.72
2018-05-16T05:58:36.243Z,34.98
2018-05-16T06:01:03.825Z,35.29
2018-05-16T06:03:31.385Z,36.63
2018-05-16T06:05:58.928Z,37.69
2018-05-16T06:08:26.662Z,36.45
2018-05-16T06:10:54.226Z,36.19
2018-05-16T06:13:21.764Z,36.78
2018-05-16T06:15:49.332Z,37.79
2018-05-16T06:18:16.876Z,36.96
2018-05-16T06:20:44.563Z,39.36
2018-05-16T06:23:12.137Z,39.89
2018-05-16T06:25:39.688Z,38.34
2018-05-16T06:28:07.231Z,39.54
2018-05-16T06:30:34.806Z,37.69
2018-05-16T06:33:02.344Z,36.81
2018-05-16T06:35:29.886Z,35.30
2018-05-16T06:37:57.596Z,35.92
2018-05-16T06:40:25.152Z,37.08
2018-05-16T06:42:52.693Z,35.30
2018-05-16T06:45:20.583Z,35.54
2018-05-16T06:47:48.127Z,36.15
2018-05-16T06:50:15.690Z,36.64
2018-05-16T06:52:43.277Z,37.32
2018-05-16T06:55:10.831Z,37.90
2018-05-16T06:57:38.365Z,37.62
2018-05-16T07:00:05.936Z,36.10
2018-05-16T07:02:33.470Z,36.99
2018-05-16T07:05:00.995Z,37.67
2018-05-16T07:07:28.712Z,37.66
2018-05-16T07:09:56.260Z,39.10
2018-05-16T07:12:23.802Z,38.33
2018-05-16T07:14:51.379Z,37.62
2018-05-16T07:17:18.921Z,38.24
2018-05-16T07:19:46.476Z,39.40
2018-05-16T07:22:14.065Z,38.92
2018-05-16T07:24:41.625Z,41.92
2018-05-16T07:27:09.158Z,42.87
2018-05-16T07:29:36.726Z,43.97
2018-05-16T07:32:04.255Z,43.54
2018-05-16T07:34:31.801Z,43.69
2018-05-16T07:36:59.800Z,44.64
2018-05-16T07:39:27.350Z,42.91
2018-05-16T07:41:54.893Z,43.78
2018-05-16T07:44:22.467Z,42.47
2018-05-16T07:46:50.005Z,43.38
2018-05-16T07:49:17.547Z,42.68
2018-05-16T07:51:45.211Z,42.26
2018-05-16T07:54:12.764Z,41.83
2018-05-16T07:56:40.310Z,43.15
2018-05-16T07:59:08.021Z,44.27
2018-05-16T08:01:35.576Z,43.16
2018-05-16T08:04:03.418Z,44.33
2018-05-16T08:06:31.015Z,46.04
2018-05-16T08:08:58.551Z,45.20
2018-05-16T08:11:26.090Z,43.64
2018-05-16T08:13:53.714Z,42.83
2018-05-16T08:16:21.254Z,44.99
2018-05-16T08:18:48.800Z,43.71
2018-05-16T08:21:16.355Z,45.30
2018-05-16T08:23:43.896Z,46.09
2018-05-16T08:26:11.437Z,46.53
2018-05-16T08:28:39.003Z,46.04
2018-05-16T08:31:06.551Z,45.57
2018-05-16T08:33:34.098Z,45.56
2018-05-16T08:36:01.677Z,46.78
2018-05-16T08:38:29.221Z,46.00
2018-05-16T08:40:56.765Z,44.62
2018-05-16T08:43:24.332Z,43.89
2018-05-16T08:45:51.868Z,47.46
2018-05-16T08:48:19.423Z,45.54
2018-05-16T08:50:47.024Z,44.54
2018-05-16T08:53:14.579Z,45.22
2018-05-16T08:55:42.119Z,47.10
2018-05-16T08:58:09.857Z,46.64
2018-05-16T09:00:37.423Z,45.79
2018-05-16T09:03:05.019Z,46.28
2018-05-16T09:05:32.769Z,45.46
2018-05-16T09:08:00.321Z,44.32
2018-05-16T09:10:27.879Z,42.97
2018-05-16T09:12:55.480Z,43.71
2018-05-16T09:15:23.017Z,44.27
2018-05-16T09:17:50.561Z,43.87
2018-05-16T09:20:18.260Z,41.94
2018-05-16T09:22:45.844Z,39.44
2018-05-16T09:25:13.466Z,34.70
2018-05-16T09:27:40.995Z,37.49
2018-05-16T09:30:08.540Z,40.44
2018-05-16T09:32:36.089Z,38.21
2018-05-16T09:35:03.656Z,35.69
2018-05-16T09:37:31.193Z,37.28
2018-05-16T09:39:58.758Z,38.73
2018-05-16T09:42:26.301Z,34.50
2018-05-16T09:44:53.842Z,37.95
2018-05-16T09:47:21.440Z,37.80
2018-05-16T09:49:48.998Z,36.40
2018-05-16T09:52:16.558Z,33.44
2018-05-16T09:54:44.358Z,33.50
2018-05-16T09:57:11.947Z,36.19
2018-05-16T09:59:40.105Z,35.84
2018-05-16T10:02:07.692Z,36.62
2018-05-16T10:04:35.241Z,33.63
2018-05-16T10:07:02.793Z,34.25
2018-05-16T10:09:30.376Z,34.44
2018-05-16T10:11:57.927Z,31.09
2018-05-16T10:14:25.473Z,31.80
2018-05-16T10:16:53.093Z,34.43
2018-05-16T10:19:20.635Z,33.40
2018-05-16T10:21:48.188Z,29.25
2018-05-16T10:24:16.087Z,28.25
2018-05-16T10:26:43.619Z,27.49
2018-05-16T10:29:11.173Z,28.21
2018-05-16T10:31:38.744Z,26.09
2018-05-16T10:34:06.285Z,25.83
2018-05-16T10:36:33.833Z,28.92
2018-05-16T10:39:01.409Z,28.14
2018-05-16T10:41:28.991Z,26.62
2018-05-16T10:43:56.538Z,29.25
2018-05-16T10:46:24.112Z,27.82
2018-05-16T10:48:51.653Z,27.82
2018-05-16T10:51:19.194Z,23.15
2018-05-16T10:53:46.766Z,24.59
2018-05-16T10:56:14.332Z,23.32
2018-05-16T10:58:41.887Z,24.55
2018-05-16T11:01:09.465Z,26.83
2018-05-16T11:03:37.003Z,26.22
2018-05-16T11:06:04.574Z,25.79
2018-05-16T11:08:32.311Z,25.48
2018-05-16T11:10:59.851Z,23.72
2018-05-16T11:13:27.397Z,23.98
2018-05-16T11:15:54.965Z,26.66
2018-05-16T11:18:22.511Z,25.23
2018-05-16T11:20:50.044Z,25.00
2018-05-16T11:23:17.612Z,26.02
2018-05-16T11:25:45.165Z,24.06
2018-05-16T11:28:12.697Z,26.30
2018-05-16T11:30:40.769Z,22.96
2018-05-16T11:33:08.304Z,24.46
2018-05-16T11:35:35.856Z,25.15
2018-05-16T11:38:03.880Z,24.62
2018-05-16T11:40:31.424Z,26.09
2018-05-16T11:42:59.123Z,25.93
2018-05-16T11:45:26.692Z,26.13
2018-05-16T11:47:54.268Z,26.90
2018-05-16T11:50:21.807Z,27.26
2018-05-16T11:52:49.374Z,25.96
2018-05-16T11:55:16.915Z,26.42
2018-05-16T11:57:44.508Z,28.18
2018-05-16T12:00:12.233Z,27.23
2018-05-16T12:02:39.765Z,27.38
2018-05-16T12:05:07.308Z,26.54
2018-05-16T12:07:35.213Z,25.56
2018-05-16T12:10:02.799Z,27.68
2018-05-16T12:12:30.336Z,25.77
2018-05-16T12:14:58.090Z,25.86
2018-05-16T12:17:25.622Z,25.64
2018-05-16T12:19:53.162Z,25.16
2018-05-16T12:22:20.896Z,24.88
2018-05-16T12:24:48.444Z,26.31
2018-05-16T12:27:15.983Z,26.12
2018-05-16T12:29:43.550Z,26.59
2018-05-16T12:32:11.093Z,25.73
2018-05-16T12:34:38.652Z,27.12
2018-05-16T12:37:06.216Z,28.05
2018-05-16T12:39:33.768Z,26.37
2018-05-16T12:42:01.307Z,29.14
2018-05-16T12:44:29.053Z,25.90
2018-05-16T12:46:56.605Z,26.44
2018-05-16T12:49:25.007Z,27.01
2018-05-16T12:51:52.657Z,25.88
2018-05-16T12:54:20.239Z,24.99
2018-05-16T12:56:47.788Z,25.62
2018-05-16T12:59:15.356Z,26.28
2018-05-16T13:01:42.911Z,26.81
2018-05-16T13:04:10.460Z,24.25
2018-05-16T13:06:38.065Z,22.99
2018-05-16T13:09:06.481Z,24.02
2018-05-16T13:11:34.054Z,24.41
2018-05-16T13:14:01.778Z,25.53
2018-05-16T13:16:29.329Z,24.79
2018-05-16T13:18:56.885Z,25.74
2018-05-16T13:21:24.557Z,25.73
2018-05-16T13:23:52.050Z,22.40
2018-05-16T13:26:19.593Z,23.77
2018-05-16T13:28:47.320Z,23.12
2018-05-16T13:31:14.869Z,24.13
2018-05-16T13:33:42.417Z,24.78
2018-05-16T13:36:10.734Z,23.92
2018-05-16T13:38:38.275Z,24.84
2018-05-16T13:41:05.831Z,24.12
2018-05-16T13:43:33.714Z,24.47
2018-05-16T13:46:01.262Z,24.39
2018-05-16T13:48:28.829Z,25.21
2018-05-16T13:50:56.407Z,24.73
2018-05-16T13:53:23.990Z,24.53
2018-05-16T13:55:51.558Z,24.90
2018-05-16T13:58:19.160Z,24.48
2018-05-16T14:00:46.746Z,25.70
2018-05-16T14:03:14.288Z,25.39
2018-05-16T14:05:42.204Z,25.10
2018-05-16T14:08:09.742Z,26.49
2018-05-16T14:10:37.275Z,26.39
2018-05-16T14:13:04.850Z,27.47
2018-05-16T14:15:32.394Z,25.88
2018-05-16T14:17:59.932Z,26.69
2018-05-16T14:20:27.660Z,26.82
2018-05-16T14:22:55.212Z,26.95
2018-05-16T14:25:22.779Z,27.03
2018-05-16T14:27:50.561Z,25.19
2018-05-16T14:30:18.095Z,24.95
2018-05-16T14:32:45.643Z,24.85
2018-05-16T14:35:13.217Z,25.97
2018-05-16T14:37:40.756Z,26.44
2018-05-16T14:40:08.321Z,26.19
2018-05-16T14:42:35.903Z,26.33
2018-05-16T14:45:03.477Z,26.67
2018-05-16T14:47:31.198Z,26.41
2018-05-16T14:49:58.759Z,26.12
2018-05-16T14:52:26.330Z,25.61
2018-05-16T14:54:54.007Z,25.09
2018-05-16T14:57:21.569Z,25.87
2018-05-16T14:59:49.136Z,25.54
2018-05-16T15:02:17.023Z,26.04
2018-05-16T15:04:44.575Z,25.37
2018-05-16T15:07:12.126Z,25.45
2018-05-16T15:09:39.706Z,26.66
2018-05-16T15:12:07.269Z,24.68
2018-05-16T15:14:34.825Z,25.07
2018-05-16T15:17:02.554Z,26.14
2018-05-16T15:19:30.097Z,25.09
2018-05-16T15:21:57.651Z,24.31
2018-05-16T15:24:25.233Z,24.25
2018-05-16T15:26:52.780Z,24.52
2018-05-16T15:29:20.344Z,25.49
2018-05-16T15:31:48.234Z,24.59
2018-05-16T15:34:15.809Z,25.73
2018-05-16T15:36:43.348Z,24.95
2018-05-16T15:39:11.083Z,25.11
2018-05-16T15:41:38.638Z,24.61
2018-05-16T15:44:06.182Z,24.90
2018-05-16T15:46:33.791Z,24.96
2018-05-16T15:49:01.344Z,25.73
2018-05-16T15:51:28.913Z,26.94
2018-05-16T15:53:56.660Z,26.68
2018-05-16T15:56:24.196Z,27.66
2018-05-16T15:58:51.765Z,27.33
2018-05-16T16:01:19.500Z,27.57
2018-05-16T16:03:47.056Z,27.92
2018-05-16T16:06:14.605Z,27.44
2018-05-16T16:08:42.195Z,26.98
2018-05-16T16:11:09.754Z,28.70
2018-05-16T16:13:37.304Z,27.03
2018-05-16T16:16:04.980Z,26.89
2018-05-16T16:18:32.523Z,25.70
2018-05-16T16:21:00.059Z,27.17
2018-05-16T16:23:27.641Z,27.76
2018-05-16T16:25:55.222Z,28.03
2018-05-16T16:28:22.772Z,27.58
2018-05-16T16:30:50.449Z,27.46
2018-05-16T16:33:17.997Z,26.99
2018-05-16T16:35:45.588Z,28.19
2018-05-16T16:38:13.169Z,28.00
2018-05-16T16:40:40.717Z,28.24
2018-05-16T16:43:08.279Z,29.42
2018-05-16T16:45:36.000Z,27.98
2018-05-16T16:48:03.552Z,27.71
2018-05-16T16:50:31.111Z,30.15
2018-05-16T16:52:58.854Z,30.29
2018-05-16T16:55:26.411Z,31.68
2018-05-16T16:57:53.967Z,33.56
2018-05-16T17:00:21.533Z,35.31
2018-05-16T17:02:49.094Z,35.86
2018-05-16T17:05:16.637Z,35.77
2018-05-16T17:07:44.377Z,35.63
2018-05-16T17:10:11.936Z,36.65
2018-05-16T17:12:39.523Z,37.45
2018-05-16T17:15:07.083Z,38.89
2018-05-16T17:17:34.625Z,39.06
2018-05-16T17:20:02.197Z,39.21
2018-05-16T17:22:29.876Z,39.49
2018-05-16T17:24:57.409Z,39.78
2018-05-16T17:27:24.947Z,40.26
2018-05-16T17:29:52.636Z,40.56
2018-05-16T17:32:20.186Z,41.53
2018-05-16T17:34:47.735Z,41.99
2018-05-16T17:37:15.328Z,42.17
2018-05-16T17:39:42.873Z,42.48
2018-05-16T17:42:10.445Z,42.93
2018-05-16T17:44:38.020Z,42.54
2018-05-16T17:47:05.652Z,40.30
2018-05-16T17:49:33.144Z,40.49
2018-05-16T17:52:00.873Z,40.70
2018-05-16T17:54:28.433Z,41.74
2018-05-16T17:56:55.983Z,42.54
2018-05-16T17:59:23.570Z,43.20
2018-05-16T18:01:51.129Z,43.69
2018-05-16T18:04:20.249Z,43.58
2018-05-16T18:06:47.972Z,44.45
2018-05-16T18:09:15.525Z,44.85
2018-05-16T18:11:43.080Z,45.43
2018-05-16T18:17:35.236Z,45.46
2018-05-16T18:20:02.813Z,45.00
2018-05-16T18:22:30.360Z,45.92
2018-05-16T18:24:57.905Z,46.23
2018-05-16T18:27:25.484Z,46.52
2018-05-16T18:29:53.033Z,46.66
2018-05-16T18:32:20.576Z,46.96
2018-05-16T18:34:48.210Z,47.16
2018-05-16T18:37:15.771Z,47.56
2018-05-16T18:39:43.377Z,48.17
2018-05-16T18:42:10.893Z,48.54
2018-05-16T18:44:38.443Z,48.45
2018-05-16T18:47:06.025Z,48.89
2018-05-16T18:49:33.601Z,49.23
2018-05-16T18:52:01.143Z,50.13
2018-05-16T18:54:29.051Z,50.23
2018-05-16T18:56:56.640Z,51.03
2018-05-16T18:59:24.245Z,51.21
2018-05-16T19:01:51.978Z,51.23
2018-05-16T19:04:19.512Z,51.16
2018-05-16T19:06:47.051Z,51.46
2018-05-16T19:09:14.795Z,51.71
2018-05-16T19:11:42.333Z,51.97
2018-05-16T19:14:09.869Z,51.57
2018-05-16T19:16:37.447Z,51.65
2018-05-16T19:19:05.053Z,51.98
2018-05-16T19:21:32.606Z,53.36
2018-05-16T19:24:00.504Z,54.02
2018-05-16T19:26:29.040Z,54.27
2018-05-16T19:28:56.531Z,54.43
2018-05-16T19:31:24.215Z,55.31
2018-05-16T19:33:51.758Z,55.70
2018-05-16T19:36:19.305Z,56.16
2018-05-16T19:38:46.879Z,56.48
2018-05-16T19:41:14.441Z,57.37
2018-05-16T19:43:41.997Z,57.75
2018-05-16T19:46:10.014Z,58.06
2018-05-16T19:48:37.532Z,58.44
2018-05-16T19:51:05.186Z,58.83
2018-05-16T19:53:32.862Z,59.38
2018-05-16T19:56:00.416Z,60.16
2018-05-16T19:58:28.038Z,60.65
2018-05-16T20:00:55.746Z,60.75
2018-05-16T20:03:23.336Z,60.81
2018-05-16T20:05:50.894Z,61.17
2018-05-16T20:08:18.589Z,61.50
2018-05-16T20:10:46.144Z,62.44
2018-05-16T20:13:13.691Z,62.56
2018-05-16T20:15:41.261Z,63.00
2018-05-16T20:18:08.834Z,63.41
2018-05-16T20:20:36.379Z,63.91
2018-05-16T20:23:03.952Z,64.26
2018-05-16T20:25:31.489Z,64.23
2018-05-16T20:27:59.041Z,64.53
2018-05-16T20:30:26.769Z,64.97
2018-05-16T20:32:54.314Z,65.17
2018-05-16T20:35:21.858Z,65.38
2018-05-16T20:37:49.552Z,65.69
2018-05-16T20:40:17.092Z,66.46
2018-05-16T20:42:44.640Z,66.78
2018-05-16T20:45:12.534Z,66.95
2018-05-16T20:47:40.093Z,67.11
2018-05-16T20:50:07.648Z,67.02
2018-05-16T20:52:35.223Z,67.38
2018-05-16T20:55:02.775Z,67.57
2018-05-16T20:57:30.321Z,67.89
2018-05-16T20:59:57.909Z,67.91
2018-05-16T21:02:25.465Z,68.06
2018-05-16T21:04:53.046Z,68.31
2018-05-16T21:07:20.734Z,68.34
2018-05-16T21:09:48.272Z,68.61
2018-05-16T21:12:15.864Z,68.82
2018-05-16T21:14:43.451Z,68.93
2018-05-16T21:17:10.992Z,69.10
2018-05-16T21:19:38.561Z,69.08
2018-05-16T21:22:06.461Z,69.10
2018-05-16T21:24:34.003Z,69.28
2018-05-16T21:27:01.556Z,69.36
2018-05-16T21:29:29.171Z,69.37
2018-05-16T21:31:56.717Z,69.35
2018-05-16T21:34:24.258Z,69.27
2018-05-16T21:36:52.180Z,69.07
2018-05-16T21:39:19.763Z,69.23
2018-05-16T21:41:47.305Z,69.72
2018-05-16T21:44:15.253Z,69.67
2018-05-16T21:46:42.794Z,69.50
2018-05-16T21:49:10.353Z,69.34
2018-05-16T21:51:37.939Z,69.23
2018-05-16T21:54:05.479Z,68.94
2018-05-16T21:56:33.047Z,68.97
2018-05-16T21:59:00.917Z,69.27
2018-05-16T22:01:28.471Z,69.54
2018-05-16T22:03:56.020Z,69.71
2018-05-16T22:06:23.733Z,69.83
2018-05-16T22:08:51.270Z,69.91
2018-05-16T22:11:18.829Z,70.02
2018-05-16T22:13:46.546Z,70.15
2018-05-16T22:16:14.095Z,70.27
2018-05-16T22:18:41.679Z,70.65
2018-05-16T22:21:09.567Z,70.88
2018-05-16T22:23:37.098Z,70.68
2018-05-16T22:26:04.660Z,70.54
2018-05-16T22:28:32.221Z,70.40
2018-05-16T22:31:05.143Z,70.31
2018-05-16T22:33:38.286Z,70.36
2018-05-16T22:36:11.455Z,70.53
2018-05-16T22:38:44.691Z,70.65
2018-05-16T22:41:17.783Z,70.80
2018-05-16T22:46:51.552Z,70.65
2018-05-16T22:49:19.265Z,70.90
2018-05-16T22:51:46.802Z,71.23
2018-05-16T22:54:14.365Z,71.32
2018-05-16T22:56:41.941Z,71.55
2018-05-16T22:59:09.475Z,71.67
2018-05-16T23:01:37.033Z,71.65
2018-05-16T23:04:04.742Z,72.03
2018-05-16T23:06:32.314Z,71.93
2018-05-16T23:08:59.853Z,72.15
2018-05-16T23:11:27.436Z,72.50
2018-05-16T23:13:54.984Z,72.80
2018-05-16T23:16:22.530Z,73.01
2018-05-16T23:18:50.244Z,72.97
2018-05-16T23:21:17.798Z,73.36
2018-05-16T23:23:45.362Z,74.15
2018-05-16T23:26:12.927Z,74.46
2018-05-16T23:28:40.465Z,75.93
2018-05-16T23:31:08.009Z,76.61
2018-05-16T23:33:35.573Z,77.12
2018-05-16T23:36:03.117Z,77.25
2018-05-16T23:38:30.656Z,77.40
2018-05-16T23:40:58.220Z,77.82
2018-05-16T23:43:25.790Z,77.94
2018-05-16T23:45:53.373Z,78.24
2018-05-16T23:48:21.052Z,78.56
2018-05-16T23:50:48.609Z,78.49
2018-05-16T23:53:16.163Z,78.48
2018-05-16T23:55:43.736Z,78.63
2018-05-16T23:58:11.271Z,78.70
